Time;durP1;ratioP1;P1;durP2;ratioP2;P2;SDS_P1;SDS_P2;PMS_P1;PMS_P2;Temp;Humidity;BMP_temperature;BMP_pressure;BME280_temperature;BME280_humidity;BME280_pressure;Samples;Min_cycle;Max_cycle;Signal;HPM_P1;HPM_P2
2021/08/05 00:01:33;;;;;;;7.70;4.43;;;;;;;19.38;62.02;100007.50;4936132;29;20039;-83
2021/08/05 00:03:58;;;;;;;7.38;4.72;;;;;;;19.39;62.15;100002.00;4937471;29;20103;-83
2021/08/05 00:06:24;;;;;;;6.10;4.13;;;;;;;19.42;61.81;99998.16;4937471;29;20032;-83
2021/08/05 00:08:50;;;;;;;6.97;4.03;;;;;;;19.47;61.86;99989.66;4937327;29;20607;-83
2021/08/05 00:11:15;;;;;;;6.35;4.25;;;;;;;19.48;61.79;99992.16;4937277;29;20036;-83
2021/08/05 00:13:40;;;;;;;8.73;4.50;;;;;;;19.47;61.60;99989.66;4936616;29;20031;-83
2021/08/05 00:16:06;;;;;;;7.68;4.55;;;;;;;19.48;61.60;99991.31;4929223;29;20036;-83
2021/08/05 00:18:31;;;;;;;4.90;4.05;;;;;;;19.44;61.68;99984.69;4918164;29;20035;-83
2021/08/05 00:20:56;;;;;;;5.32;4.00;;;;;;;19.42;61.65;99971.53;4918130;29;20051;-83
2021/08/05 00:23:22;;;;;;;4.47;4.07;;;;;;;19.42;61.89;99961.72;4918232;29;20028;-83
2021/08/05 00:25:47;;;;;;;5.68;3.67;;;;;;;19.41;62.14;99964.53;4918103;29;20531;-83
2021/08/05 00:28:13;;;;;;;5.20;4.05;;;;;;;19.31;61.40;99964.78;4918162;29;20036;-83
2021/08/05 00:30:38;;;;;;;6.63;3.85;;;;;;;19.27;61.83;99974.06;4923806;29;20406;-83
2021/08/05 00:33:03;;;;;;;7.22;3.97;;;;;;;19.10;62.28;99973.31;4936775;29;20058;-83
2021/08/05 00:35:29;;;;;;;5.55;3.97;;;;;;;19.11;62.27;99968.81;4937111;29;20070;-83
2021/08/05 00:37:54;;;;;;;6.70;4.10;;;;;;;19.12;62.80;99965.16;4936802;29;20059;-83
2021/08/05 00:40:19;;;;;;;6.93;4.70;;;;;;;19.14;62.07;99965.81;4936770;29;20027;-83
2021/08/05 00:42:49;;;;;;;6.75;4.15;;;;;;;19.12;62.75;99960.66;4936702;29;20090;-83
2021/08/05 00:45:15;;;;;;;6.20;4.15;;;;;;;19.11;62.75;99959.00;4935005;29;20024;-83
2021/08/05 00:47:40;;;;;;;5.38;4.15;;;;;;;19.18;62.71;99953.84;4936666;29;20036;-83
2021/08/05 00:50:06;;;;;;;7.10;4.60;;;;;;;19.17;62.58;99946.84;4936709;29;20071;-83
2021/08/05 00:52:31;;;;;;;6.43;4.30;;;;;;;19.20;63.04;99946.50;4936615;29;20028;-83
2021/08/05 00:54:56;;;;;;;6.68;4.40;;;;;;;19.20;62.17;99951.81;4934761;29;20467;-83
2021/08/05 00:57:22;;;;;;;9.15;4.50;;;;;;;19.13;62.76;99948.19;4936518;29;20462;-83
2021/08/05 00:59:47;;;;;;;6.53;4.47;;;;;;;19.15;62.94;99951.50;4935225;29;20092;-83
2021/08/05 01:02:19;;;;;;;9.35;4.75;;;;;;;19.24;62.49;99945.16;4936256;29;20035;-83
2021/08/05 01:04:48;;;;;;;7.50;4.25;;;;;;;19.14;62.88;99941.88;4936398;29;20036;-83
2021/08/05 01:07:18;;;;;;;8.77;5.97;;;;;;;19.13;63.20;99940.19;4936552;29;20054;-83
2021/08/05 01:10:05;;;;;;;10.82;6.57;;;;;;;19.19;63.32;99935.03;4936406;29;20514;-83
2021/08/05 01:12:38;;;;;;;5.97;5.38;;;;;;;19.07;63.29;99924.91;4936187;29;20474;-83
2021/08/05 01:15:09;;;;;;;9.98;7.13;;;;;;;19.09;63.65;99914.94;4934596;29;20020;-83
2021/08/05 01:17:44;;;;;;;9.07;6.88;;;;;;;19.17;63.50;99920.22;4928374;29;20043;-83
2021/08/05 01:20:15;;;;;;;16.35;8.20;;;;;;;19.14;63.82;99920.59;4918012;29;20507;-83
2021/08/05 01:22:47;;;;;;;10.40;7.50;;;;;;;19.14;63.79;99916.09;4917105;29;20040;-83
2021/08/05 01:25:24;;;;;;;10.60;7.13;;;;;;;19.28;63.02;99914.53;4916930;29;20031;-83
2021/08/05 01:27:51;;;;;;;7.60;5.65;;;;;;;19.13;63.27;99908.25;4917040;29;20028;-83
2021/08/05 01:30:16;;;;;;;8.88;6.22;;;;;;;19.02;63.45;99904.16;4916973;29;20080;-83
2021/08/05 01:32:43;;;;;;;8.90;6.68;;;;;;;18.98;63.15;99901.00;4916938;29;20028;-83
2021/08/05 01:35:10;;;;;;;19.73;8.68;;;;;;;18.81;63.36;99888.75;4927558;29;20474;-83
2021/08/05 01:37:35;;;;;;;9.63;6.97;;;;;;;18.77;63.23;99885.56;4935965;29;20047;-83
2021/08/05 01:40:02;;;;;;;13.98;8.85;;;;;;;18.71;64.51;99882.75;4935640;29;20122;-83
2021/08/05 01:42:29;;;;;;;18.25;10.00;;;;;;;18.67;64.85;99881.44;4935694;29;20027;-83
2021/08/05 01:44:55;;;;;;;12.18;8.50;;;;;;;18.69;64.41;99884.75;4935582;29;20024;-83
2021/08/05 01:47:21;;;;;;;11.88;8.25;;;;;;;18.66;64.23;99885.09;4935707;29;20032;-83
2021/08/05 01:49:48;;;;;;;11.77;7.65;;;;;;;18.63;63.78;99887.09;4925154;29;20076;-83
2021/08/05 01:52:16;;;;;;;10.05;7.38;;;;;;;18.60;64.15;99886.59;4916901;29;20391;-83
2021/08/05 01:54:42;;;;;;;10.77;6.70;;;;;;;18.60;64.41;99883.94;4916594;29;20109;-83
2021/08/05 01:57:10;;;;;;;11.98;8.38;;;;;;;18.67;63.83;99882.25;4916549;29;20112;-83
2021/08/05 01:59:36;;;;;;;9.30;7.57;;;;;;;18.51;63.96;99888.44;4916540;29;20084;-83
2021/08/05 02:02:02;;;;;;;18.77;9.55;;;;;;;18.53;64.88;99877.66;4916494;29;20028;-83
2021/08/05 02:04:33;;;;;;;13.35;9.20;;;;;;;18.67;65.08;99874.28;4925635;29;20035;-83
2021/08/05 02:07:07;;;;;;;12.65;9.20;;;;;;;18.68;65.11;99867.13;4935627;29;20027;-83
2021/08/05 02:09:40;;;;;;;15.13;9.18;;;;;;;18.63;65.74;99871.13;4935249;29;20035;-83
2021/08/05 02:12:05;;;;;;;16.00;9.80;;;;;;;18.49;65.41;99868.34;4935263;29;20031;-83
2021/08/05 02:14:34;;;;;;;14.27;9.05;;;;;;;18.54;65.43;99869.50;4935199;29;20027;-83
2021/08/05 02:17:01;;;;;;;15.95;10.43;;;;;;;18.51;66.17;99872.50;4935199;29;20054;-83
2021/08/05 02:19:28;;;;;;;14.93;10.15;;;;;;;18.47;66.15;99867.69;4923534;29;20028;-83
2021/08/05 02:21:54;;;;;;;15.75;10.48;;;;;;;18.47;66.16;99863.19;4916072;29;20127;-83
2021/08/05 02:24:21;;;;;;;21.80;10.88;;;;;;;18.45;66.22;99865.19;4916074;29;20448;-83
2021/08/05 02:26:47;;;;;;;21.52;10.00;;;;;;;18.46;66.00;99866.84;4916111;29;20024;-83
2021/08/05 02:29:12;;;;;;;16.23;10.38;;;;;;;18.44;66.04;99863.53;4916123;29;20020;-83
2021/08/05 02:31:38;;;;;;;15.48;10.50;;;;;;;18.41;65.39;99864.69;4916047;29;20546;-83
2021/08/05 02:34:06;;;;;;;14.02;9.27;;;;;;;18.36;65.70;99864.34;4926222;29;20071;-83
2021/08/05 02:36:32;;;;;;;15.07;10.02;;;;;;;18.26;65.68;99873.53;4933178;29;20077;-83
2021/08/05 02:38:58;;;;;;;13.85;9.57;;;;;;;18.24;65.46;99871.84;4934500;29;20032;-83
2021/08/05 02:41:25;;;;;;;13.68;8.88;;;;;;;18.23;65.42;99867.53;4934902;29;20501;-83
2021/08/05 02:43:51;;;;;;;12.68;8.82;;;;;;;18.20;65.85;99864.38;4934615;29;20098;-83
2021/08/05 02:46:17;;;;;;;12.77;8.68;;;;;;;18.15;65.67;99856.09;4934880;29;20035;-83
2021/08/05 02:48:45;;;;;;;11.40;9.05;;;;;;;18.13;65.77;99858.91;4934634;29;20469;-83
2021/08/05 02:51:11;;;;;;;10.80;8.18;;;;;;;18.03;65.76;99850.28;4934703;29;20431;-83
2021/08/05 02:53:37;;;;;;;11.73;9.05;;;;;;;18.02;65.12;99849.44;4934910;29;20035;-83
2021/08/05 02:56:03;;;;;;;11.35;8.48;;;;;;;18.01;65.57;99844.31;4934556;29;20035;-83
2021/08/05 02:58:29;;;;;;;10.98;7.93;;;;;;;18.00;65.46;99843.47;4917563;29;20088;-83
2021/08/05 03:00:55;;;;;;;12.75;8.48;;;;;;;17.98;64.94;99836.66;4915973;29;20372;-83
2021/08/05 03:03:24;;;;;;;13.55;8.52;;;;;;;17.98;64.98;99836.66;4919574;29;20059;-83
2021/08/05 03:05:51;;;;;;;13.68;8.95;;;;;;;17.76;65.63;99824.84;4934421;29;20063;-83
2021/08/05 03:08:17;;;;;;;13.52;8.02;;;;;;;17.79;65.58;99825.34;4935094;29;20055;-83
2021/08/05 03:10:42;;;;;;;16.38;8.45;;;;;;;17.78;65.65;99834.28;4934568;29;20438;-83
2021/08/05 03:13:07;;;;;;;15.25;9.05;;;;;;;17.74;65.30;99827.66;4934448;29;20031;-83
2021/08/05 03:15:33;;;;;;;14.43;8.48;;;;;;;17.67;65.07;99826.66;4934421;29;20063;-83
2021/08/05 03:17:58;;;;;;;15.45;8.10;;;;;;;17.60;64.75;99815.03;4932858;29;20435;-83
2021/08/05 03:20:23;;;;;;;13.02;8.13;;;;;;;17.60;64.89;99809.72;4934280;29;20039;-83
2021/08/05 03:22:49;;;;;;;11.48;8.15;;;;;;;17.49;66.15;99812.69;4934431;29;20026;-83
2021/08/05 03:25:14;;;;;;;10.25;8.55;;;;;;;17.49;65.84;99796.78;4934312;29;20031;-83
2021/08/05 03:27:40;;;;;;;13.00;8.70;;;;;;;17.37;66.79;99805.03;4934337;29;20028;-83
2021/08/05 03:30:08;;;;;;;14.23;8.27;;;;;;;17.45;66.72;99802.41;4934661;29;20651;-83
2021/08/05 03:32:34;;;;;;;13.00;8.88;;;;;;;17.42;66.60;99794.78;4934503;29;20118;-83
2021/08/05 03:34:59;;;;;;;11.35;8.43;;;;;;;17.42;66.63;99802.75;4916482;29;20032;-83
2021/08/05 03:37:25;;;;;;;12.30;8.77;;;;;;;17.42;66.87;99797.44;4915400;29;20549;-83
2021/08/05 03:39:50;;;;;;;12.32;7.60;;;;;;;17.42;66.96;99793.94;4915178;29;20035;-83
2021/08/05 03:42:16;;;;;;;12.15;8.80;;;;;;;17.43;66.75;99793.78;4916225;29;20039;-83
2021/08/05 03:44:41;;;;;;;11.43;8.32;;;;;;;17.42;66.39;99791.31;4928307;29;20055;-83
2021/08/05 03:47:06;;;;;;;13.35;8.32;;;;;;;17.37;66.24;99789.13;4934312;29;20478;-83
2021/08/05 03:49:32;;;;;;;10.73;8.25;;;;;;;17.38;66.39;99789.97;4935173;29;20479;-83
2021/08/05 03:51:57;;;;;;;9.98;7.63;;;;;;;17.37;66.81;99796.25;4937727;29;20019;-83
2021/08/05 03:54:22;;;;;;;11.18;8.25;;;;;;;17.30;67.18;99787.28;4937596;29;20031;-83
2021/08/05 03:56:48;;;;;;;9.18;6.72;;;;;;;17.35;67.38;99780.50;4937718;29;20492;-83
2021/08/05 03:59:13;;;;;;;11.48;7.68;;;;;;;17.40;67.80;99782.69;4935871;29;20090;-83
2021/08/05 04:01:39;;;;;;;10.65;8.30;;;;;;;17.47;68.24;99785.50;4937592;29;20035;-83
2021/08/05 04:04:04;;;;;;;11.32;8.75;;;;;;;17.44;68.73;99779.53;4937518;29;20060;-83
2021/08/05 04:06:29;;;;;;;14.52;8.88;;;;;;;17.55;68.59;99778.34;4937553;29;20066;-83
2021/08/05 04:08:54;;;;;;;13.25;8.80;;;;;;;17.60;68.74;99770.75;4937410;29;20062;-83
2021/08/05 04:11:20;;;;;;;15.73;9.50;;;;;;;17.64;68.94;99763.28;4937552;29;20024;-83
2021/08/05 04:13:45;;;;;;;18.13;11.13;;;;;;;17.66;68.82;99755.97;4935750;29;20066;-83
2021/08/05 04:16:11;;;;;;;12.18;8.73;;;;;;;17.71;68.99;99763.44;4937333;29;20051;-83
2021/08/05 04:18:36;;;;;;;14.50;9.88;;;;;;;17.76;68.65;99756.63;4937226;29;20146;-83
2021/08/05 04:21:01;;;;;;;13.68;10.10;;;;;;;17.82;68.73;99745.34;4937392;29;20177;-83
2021/08/05 04:23:27;;;;;;;18.15;10.82;;;;;;;17.84;69.43;99745.22;4937221;29;20530;-83
2021/08/05 04:25:52;;;;;;;14.45;9.95;;;;;;;17.92;69.21;99742.53;4937275;29;20024;-83
2021/08/05 04:28:18;;;;;;;12.80;8.93;;;;;;;18.00;68.83;99741.72;4933403;29;20127;-83
2021/08/05 04:30:44;;;;;;;15.00;11.18;;;;;;;18.02;68.42;99739.72;4918164;29;20654;-83
2021/08/05 04:33:09;;;;;;;16.05;9.85;;;;;;;18.09;68.56;99731.88;4918087;29;20619;-83
2021/08/05 04:35:34;;;;;;;17.10;10.93;;;;;;;18.09;68.49;99729.22;4932561;29;20024;-83
2021/08/05 04:38:01;;;;;;;18.67;10.73;;;;;;;18.15;68.11;99718.75;4933549;29;20034;-83
2021/08/05 04:40:28;;;;;;;15.18;9.88;;;;;;;18.26;68.06;99719.41;4917754;29;20047;-83
2021/08/05 04:42:54;;;;;;;14.50;10.60;;;;;;;18.15;68.97;99723.25;4918012;29;20024;-83
2021/08/05 04:45:19;;;;;;;18.02;11.60;;;;;;;18.20;68.27;99712.94;4918781;29;20489;-83
2021/08/05 04:48:07;;;;;;;14.65;9.52;;;;;;;18.47;67.81;99706.38;4918551;29;20435;-83
2021/08/05 04:50:34;;;;;;;13.45;9.60;;;;;;;18.38;67.91;99710.03;4917803;29;20033;-83
2021/08/05 04:53:00;;;;;;;17.77;10.52;;;;;;;18.38;68.09;99707.38;4917727;29;20456;-83
2021/08/05 04:55:27;;;;;;;15.57;9.95;;;;;;;18.39;67.83;99711.72;4917635;29;20111;-83
2021/08/05 04:58:02;;;;;;;16.90;10.18;;;;;;;18.53;67.69;99713.66;4917631;29;20111;-83
2021/08/05 05:00:45;;;;;;;15.30;9.57;;;;;;;18.43;67.93;99707.72;4917524;29;20028;-83
2021/08/05 05:03:11;;;;;;;17.95;11.02;;;;;;;18.34;68.52;99700.75;4928063;29;20031;-83
2021/08/05 05:05:37;;;;;;;19.30;10.23;;;;;;;18.42;68.08;99690.94;4936347;29;20039;-83
2021/08/05 05:08:18;;;;;;;16.58;10.63;;;;;;;18.59;67.81;99693.53;4936477;29;20034;-83
2021/08/05 05:10:44;;;;;;;14.48;9.82;;;;;;;18.49;68.02;99688.41;4932942;29;20032;-83
2021/08/05 05:13:10;;;;;;;19.13;10.27;;;;;;;18.46;67.94;99691.41;4917132;29;20514;-83
2021/08/05 05:15:36;;;;;;;14.10;9.65;;;;;;;18.51;68.00;99682.94;4917198;29;20032;-83
2021/08/05 05:18:01;;;;;;;16.10;10.35;;;;;;;18.56;67.58;99685.88;4917220;29;20147;-83
2021/08/05 05:20:27;;;;;;;18.00;10.65;;;;;;;18.55;67.88;99682.41;4931966;29;20031;-83
2021/08/05 05:22:52;;;;;;;18.75;11.18;;;;;;;18.55;68.04;99681.56;4936336;29;20036;-83
2021/08/05 05:25:18;;;;;;;19.08;12.07;;;;;;;18.57;67.80;99685.72;4936082;29;20027;-83
2021/08/05 05:27:43;;;;;;;19.10;11.55;;;;;;;18.58;67.42;99673.25;4934387;29;20038;-83
2021/08/05 05:30:10;;;;;;;20.02;11.68;;;;;;;18.67;67.99;99668.72;4935954;29;20038;-83
2021/08/05 05:32:36;;;;;;;17.25;11.70;;;;;;;18.66;68.24;99669.72;4935671;29;20034;-83
2021/08/05 05:35:03;;;;;;;17.02;12.13;;;;;;;18.99;66.47;99665.88;4935838;29;20439;-83
2021/08/05 05:37:28;;;;;;;18.90;11.98;;;;;;;18.95;66.58;99661.91;4934352;29;20491;-83
2021/08/05 05:39:55;;;;;;;15.07;10.55;;;;;;;19.22;65.92;99662.41;4935828;29;20075;-83
2021/08/05 05:42:22;;;;;;;17.65;12.05;;;;;;;19.05;66.14;99655.53;4935844;29;20079;-83
2021/08/05 05:44:47;;;;;;;17.75;11.48;;;;;;;18.93;66.80;99655.94;4935713;29;20454;-83
2021/08/05 05:47:13;;;;;;;19.17;12.25;;;;;;;18.85;66.98;99648.03;4935695;29;20057;-83
2021/08/05 05:49:38;;;;;;;18.67;12.18;;;;;;;19.11;66.14;99646.84;4935465;29;20123;-83
2021/08/05 05:52:04;;;;;;;17.58;11.40;;;;;;;19.44;64.96;99644.75;4935598;29;20028;-83
2021/08/05 05:54:30;;;;;;;17.40;12.10;;;;;;;19.46;64.65;99647.22;4934855;29;21401;-84
2021/08/05 05:56:55;;;;;;;20.58;11.98;;;;;;;19.40;64.66;99644.25;4935225;29;20070;-83
2021/08/05 05:59:20;;;;;;;17.00;11.90;;;;;;;19.41;64.35;99640.59;4933883;29;20063;-83
2021/08/05 06:01:46;;;;;;;19.25;12.82;;;;;;;19.46;64.55;99637.41;4930664;29;20092;-83
2021/08/05 06:04:11;;;;;;;15.00;11.48;;;;;;;19.59;64.00;99629.63;4923531;29;20415;-83
2021/08/05 06:06:36;;;;;;;17.95;11.35;;;;;;;19.62;64.09;99631.09;4927041;29;20505;-84
2021/08/05 06:09:02;;;;;;;23.88;11.85;;;;;;;18.99;66.11;99630.47;4922928;29;20387;-84
2021/08/05 06:11:29;;;;;;;16.77;12.45;;;;;;;19.34;65.45;99634.34;4924543;29;20090;-84
2021/08/05 06:13:57;;;;;;;20.10;13.18;;;;;;;19.25;66.10;99623.94;4920700;29;20038;-84
2021/08/05 06:16:23;;;;;;;18.80;12.10;;;;;;;19.35;65.83;99629.84;4923276;29;20082;-84
2021/08/05 06:18:49;;;;;;;18.17;11.55;;;;;;;19.08;66.71;99623.28;4927887;29;20050;-84
2021/08/05 06:21:14;;;;;;;14.00;10.38;;;;;;;19.13;66.42;99618.22;4923039;29;20046;-84
2021/08/05 06:23:39;;;;;;;13.60;10.45;;;;;;;19.52;64.95;99614.56;4919928;29;20479;-84
2021/08/05 06:26:05;;;;;;;17.52;10.57;;;;;;;19.63;64.94;99616.78;4922595;29;20028;-84
2021/08/05 06:28:33;;;;;;;17.98;11.02;;;;;;;19.88;63.75;99608.53;4921262;29;20447;-84
2021/08/05 06:31:05;;;;;;;17.73;11.40;;;;;;;19.92;64.23;99607.97;4925562;29;20391;-84
2021/08/05 06:33:32;;;;;;;13.57;10.38;;;;;;;20.00;63.39;99601.72;4929548;29;20032;-84
2021/08/05 06:35:58;;;;;;;16.23;10.00;;;;;;;19.98;63.20;99599.28;4922809;29;20020;-84
2021/08/05 06:38:23;;;;;;;17.73;11.20;;;;;;;20.00;63.30;99596.41;4922643;29;20114;-84
2021/08/05 06:40:49;;;;;;;16.83;11.32;;;;;;;19.95;63.63;99582.81;4916750;29;20055;-84
2021/08/05 06:43:14;;;;;;;16.70;11.55;;;;;;;19.94;63.65;99583.81;4914641;29;20039;-83
2021/08/05 06:45:39;;;;;;;17.15;11.30;;;;;;;20.05;63.42;99583.34;4920542;29;20123;-83
2021/08/05 06:48:05;;;;;;;17.45;10.55;;;;;;;20.15;63.52;99578.56;4915113;29;20020;-84
2021/08/05 06:50:30;;;;;;;16.65;12.82;;;;;;;20.11;63.49;99579.13;4932681;29;20368;-84
2021/08/05 06:52:56;;;;;;;17.02;10.93;;;;;;;20.22;63.54;99583.94;4934574;29;20530;-84
2021/08/05 06:55:22;;;;;;;18.88;12.15;;;;;;;20.47;62.75;99570.28;4934088;29;20036;-84
2021/08/05 06:57:47;;;;;;;17.42;11.50;;;;;;;20.63;62.51;99574.59;4933644;29;20027;-84
2021/08/05 07:00:14;;;;;;;17.05;10.75;;;;;;;20.84;61.70;99573.78;4920922;29;20044;-84
2021/08/05 07:02:39;;;;;;;15.02;9.88;;;;;;;20.79;61.44;99571.66;4915230;29;20025;-84
2021/08/05 07:05:06;;;;;;;16.67;10.23;;;;;;;20.96;60.58;99565.06;4916208;29;20064;-84
2021/08/05 07:07:31;;;;;;;14.15;9.68;;;;;;;21.28;60.64;99556.66;4915820;29;20035;-84
2021/08/05 07:09:58;;;;;;;17.33;8.80;;;;;;;21.47;60.09;99552.53;4927703;29;20034;-84
2021/08/05 07:12:24;;;;;;;14.10;7.78;;;;;;;21.39;59.74;99546.28;4934077;29;20039;-85
2021/08/05 07:14:49;;;;;;;12.05;7.43;;;;;;;21.53;59.42;99543.72;4933347;29;20031;-85
2021/08/05 07:17:15;;;;;;;12.43;7.32;;;;;;;21.34;59.67;99538.00;4934567;29;20111;-84
2021/08/05 07:19:41;;;;;;;13.27;7.20;;;;;;;21.03;60.31;99534.91;4924932;29;20110;-84
2021/08/05 07:22:07;;;;;;;13.23;7.47;;;;;;;20.65;61.47;99537.88;4915468;29;20032;-84
2021/08/05 07:24:32;;;;;;;11.02;6.20;;;;;;;20.86;60.98;99526.38;4930285;29;20062;-84
2021/08/05 07:26:57;;;;;;;11.95;6.68;;;;;;;21.05;60.45;99524.88;4938030;29;20028;-84
2021/08/05 07:29:23;;;;;;;9.65;5.75;;;;;;;20.99;60.51;99526.47;4937020;29;20031;-85
2021/08/05 07:31:48;;;;;;;9.80;6.13;;;;;;;20.66;61.17;99526.22;4932053;29;20390;-84
2021/08/05 07:34:13;;;;;;;11.25;6.32;;;;;;;20.75;60.92;99525.03;4918612;29;20040;-85
2021/08/05 07:36:39;;;;;;;10.55;6.75;;;;;;;20.70;60.97;99516.81;4926844;29;20482;-85
2021/08/05 07:39:10;;;;;;;10.05;6.82;;;;;;;20.88;60.83;99508.34;4935343;29;20496;-84
2021/08/05 07:41:36;;;;;;;11.65;6.28;;;;;;;21.17;59.85;99512.66;4932324;29;20226;-84
2021/08/05 07:44:01;;;;;;;10.45;6.22;;;;;;;20.84;60.90;99505.22;4937997;29;20514;-84
2021/08/05 07:46:26;;;;;;;8.32;5.35;;;;;;;21.13;60.30;99500.69;4929616;29;20028;-84
2021/08/05 07:48:52;;;;;;;10.48;5.78;;;;;;;20.97;60.55;99497.34;4918641;29;20032;-84
2021/08/05 07:51:17;;;;;;;9.35;4.50;;;;;;;21.09;59.99;99500.28;4923665;29;20247;-85
2021/08/05 07:53:42;;;;;;;8.40;4.28;;;;;;;21.00;59.91;99496.94;4936933;29;20031;-84
2021/08/05 07:56:08;;;;;;;7.70;4.65;;;;;;;20.82;60.29;99495.78;4933500;29;20032;-85
2021/08/05 07:58:33;;;;;;;6.70;3.80;;;;;;;21.27;59.19;99496.28;4918624;29;20427;-84
2021/08/05 08:00:58;;;;;;;8.43;4.38;;;;;;;20.93;60.02;99501.41;4920261;29;20039;-84
2021/08/05 08:03:24;;;;;;;6.53;4.22;;;;;;;21.22;59.02;99494.19;4937242;29;20115;-83
2021/08/05 08:05:49;;;;;;;11.82;5.50;;;;;;;21.33;59.20;99488.31;4931654;29;20028;-84
2021/08/05 08:08:16;;;;;;;13.43;4.50;;;;;;;21.14;59.79;99491.69;4936147;29;20103;-83
2021/08/05 08:10:42;;;;;;;10.30;3.92;;;;;;;21.26;59.32;99487.44;4933512;29;20032;-84
2021/08/05 08:13:07;;;;;;;12.57;4.30;;;;;;;21.35;59.35;99488.94;4918106;29;20035;-84
2021/08/05 08:15:32;;;;;;;8.60;4.65;;;;;;;21.10;59.54;99480.56;4926240;29;20091;-83
2021/08/05 08:17:58;;;;;;;6.78;4.57;;;;;;;21.15;59.39;99486.16;4937303;29;20505;-84
2021/08/05 08:20:23;;;;;;;7.88;4.75;;;;;;;21.12;59.88;99469.72;4930450;29;20043;-83
2021/08/05 08:22:49;;;;;;;11.63;4.50;;;;;;;21.17;59.59;99464.63;4931817;29;20513;-83
2021/08/05 08:25:15;;;;;;;6.57;3.80;;;;;;;20.88;60.44;99462.97;4931909;29;20394;-84
2021/08/05 08:27:42;;;;;;;7.10;4.43;;;;;;;21.37;59.53;99454.88;4918066;29;20029;-83
2021/08/05 08:30:09;;;;;;;8.57;3.97;;;;;;;21.36;59.56;99453.19;4918685;29;20032;-84
2021/08/05 08:32:35;;;;;;;4.85;3.88;;;;;;;21.23;59.84;99447.81;4918038;29;20029;-84
2021/08/05 08:35:02;;;;;;;5.35;3.70;;;;;;;21.62;58.95;99441.03;4918644;29;20040;-83
2021/08/05 08:37:28;;;;;;;7.05;3.83;;;;;;;21.93;57.98;99442.38;4917990;29;20063;-83
2021/08/05 08:39:53;;;;;;;9.13;4.25;;;;;;;21.64;58.77;99430.97;4932521;29;20078;-83
2021/08/05 08:42:18;;;;;;;7.22;3.58;;;;;;;21.33;59.36;99440.25;4936544;29;20059;-83
2021/08/05 08:44:45;;;;;;;4.80;3.45;;;;;;;22.18;57.47;99437.28;4923317;29;20035;-83
2021/08/05 08:47:11;;;;;;;4.13;3.50;;;;;;;21.75;57.86;99437.59;4917747;29;20034;-83
2021/08/05 08:49:41;;;;;;;9.35;3.88;;;;;;;22.10;57.54;99430.28;4930896;29;20438;-83
2021/08/05 08:52:08;;;;;;;5.15;3.38;;;;;;;22.30;56.85;99422.31;4936323;29;20066;-83
2021/08/05 08:54:40;;;;;;;7.18;3.65;;;;;;;21.75;58.21;99421.56;4935624;29;20090;-83
2021/08/05 08:57:05;;;;;;;4.63;3.55;;;;;;;21.77;58.01;99414.97;4936754;29;20055;-84
2021/08/05 08:59:31;;;;;;;8.20;4.32;;;;;;;21.44;60.14;99428.22;4926610;29;20495;-83
2021/08/05 09:01:58;;;;;;;8.32;4.28;;;;;;;21.67;60.88;99417.22;4917576;29;20387;-83
2021/08/05 09:04:23;;;;;;;7.85;4.15;;;;;;;21.25;61.81;99418.22;4917985;29;20036;-83
2021/08/05 09:06:49;;;;;;;3.95;3.42;;;;;;;21.30;62.37;99405.94;4919787;29;20508;-83
2021/08/05 09:09:15;;;;;;;7.05;4.32;;;;;;;21.74;61.02;99396.69;4928101;29;20088;-84
2021/08/05 09:11:40;;;;;;;4.88;3.65;;;;;;;21.79;60.74;99391.56;4936038;29;20114;-83
2021/08/05 09:14:06;;;;;;;11.48;4.03;;;;;;;21.28;61.47;99391.97;4925579;29;20106;-83
2021/08/05 09:16:32;;;;;;;4.38;3.42;;;;;;;21.85;60.78;99387.25;4936146;29;20028;-83
2021/08/05 09:19:07;;;;;;;4.72;3.15;;;;;;;21.85;60.30;99389.09;4934755;29;20086;-83
2021/08/05 09:21:32;;;;;;;11.00;4.40;;;;;;;21.36;60.86;99390.97;4924593;29;20028;-83
2021/08/05 09:24:07;;;;;;;6.13;3.92;;;;;;;21.72;60.50;99380.03;4916902;29;20032;-83
2021/08/05 09:26:42;;;;;;;5.15;3.20;;;;;;;21.86;59.62;99377.38;4917088;29;20103;-83
2021/08/05 09:29:22;;;;;;;6.32;3.35;;;;;;;22.04;59.13;99374.13;4918087;29;20392;-82
2021/08/05 09:31:50;;;;;;;5.80;3.53;;;;;;;21.70;59.78;99373.22;4925958;29;20035;-83
2021/08/05 09:34:30;;;;;;;3.95;3.35;;;;;;;21.99;58.69;99362.19;4934555;29;20027;-82
2021/08/05 09:37:01;;;;;;;5.47;2.83;;;;;;;21.82;58.97;99360.94;4933393;29;20032;-83
2021/08/05 09:39:29;;;;;;;4.90;2.83;;;;;;;21.75;59.12;99370.78;4935293;29;20040;-83
2021/08/05 09:42:05;;;;;;;7.30;2.97;;;;;;;21.75;59.11;99355.56;4935836;29;20111;-83
2021/08/05 09:44:36;;;;;;;5.53;3.08;;;;;;;22.03;58.71;99359.13;4927729;29;20040;-83
2021/08/05 09:47:10;;;;;;;5.22;2.58;;;;;;;21.85;58.75;99343.69;4923786;29;20039;-83
2021/08/05 09:49:38;;;;;;;4.97;2.72;;;;;;;21.25;60.21;99338.97;4934609;29;20115;-83
2021/08/05 09:52:06;;;;;;;5.38;2.97;;;;;;;21.29;61.15;99336.75;4934154;29;20024;-82
2021/08/05 09:54:51;;;;;;;2.85;2.55;;;;;;;21.82;59.74;99333.38;4935170;29;20060;-82
2021/08/05 09:57:37;;;;;;;4.15;2.92;;;;;;;21.54;60.51;99334.38;4935389;29;20030;-82
2021/08/05 10:00:07;;;;;;;3.75;2.70;;;;;;;21.19;61.61;99318.44;4935239;29;20104;-83
2021/08/05 10:02:47;;;;;;;6.18;2.95;;;;;;;21.88;59.69;99314.72;4935217;29;20414;-83
2021/08/05 10:05:21;;;;;;;10.07;3.15;;;;;;;22.49;58.16;99302.97;4935411;29;20024;-82
2021/08/05 10:07:51;;;;;;;8.25;2.85;;;;;;;22.11;58.63;99314.28;4935376;29;20027;-83
2021/08/05 10:10:22;;;;;;;4.03;3.00;;;;;;;22.17;58.21;99305.44;4935056;29;20028;-83
2021/08/05 10:13:01;;;;;;;4.88;2.55;;;;;;;22.53;57.40;99306.88;4935304;29;20028;-83
2021/08/05 10:15:28;;;;;;;5.30;2.70;;;;;;;22.22;58.03;99302.16;4935182;29;20385;-83
2021/08/05 10:18:02;;;;;;;7.07;3.08;;;;;;;22.32;57.82;99305.25;4933710;29;20178;-83
2021/08/05 10:20:29;;;;;;;4.50;2.58;;;;;;;22.21;58.01;99300.50;4934810;29;20390;-83
2021/08/05 10:22:56;;;;;;;4.63;2.65;;;;;;;21.79;59.75;99298.03;4935040;29;20496;-83
2021/08/05 10:25:25;;;;;;;5.45;2.78;;;;;;;21.37;63.81;99312.53;4935075;29;20391;-83
2021/08/05 10:27:53;;;;;;;4.88;2.10;;;;;;;21.48;63.97;99303.13;4935112;29;20031;-83
2021/08/05 10:30:19;;;;;;;3.97;2.90;;;;;;;21.53;64.51;99298.81;4934755;29;20024;-84
2021/08/05 10:32:47;;;;;;;2.65;1.92;;;;;;;21.06;64.37;99305.03;4934753;29;20035;-84
2021/08/05 10:35:13;;;;;;;2.90;2.00;;;;;;;20.87;66.36;99296.72;4934972;29;20464;-83
2021/08/05 10:37:40;;;;;;;3.25;2.25;;;;;;;20.88;66.97;99293.03;4935068;29;20020;-84
2021/08/05 10:40:07;;;;;;;4.88;2.50;;;;;;;21.12;66.81;99278.34;4934902;29;20038;-84
2021/08/05 10:42:33;;;;;;;6.05;2.60;;;;;;;21.32;67.48;99281.06;4935083;29;20098;-84
2021/08/05 10:44:59;;;;;;;6.85;2.88;;;;;;;21.11;68.40;99278.53;4934587;29;20470;-84
2021/08/05 10:47:27;;;;;;;4.95;2.50;;;;;;;21.08;68.45;99278.97;4934352;29;20052;-84
2021/08/05 10:50:00;;;;;;;6.00;2.35;;;;;;;21.15;67.83;99277.16;4934919;29;20023;-84
2021/08/05 10:52:34;;;;;;;5.35;2.63;;;;;;;20.86;69.41;99276.41;4934824;29;20028;-84
2021/08/05 10:55:00;;;;;;;3.45;2.50;;;;;;;20.87;69.94;99272.72;4934657;29;20490;-84
2021/08/05 10:57:26;;;;;;;4.07;2.53;;;;;;;21.41;68.73;99263.03;4933016;29;20052;-84
2021/08/05 11:00:15;;;;;;;4.10;3.05;;;;;;;21.71;67.17;99260.84;4917228;29;20071;-85
2021/08/05 11:02:52;;;;;;;4.88;2.60;;;;;;;21.37;68.55;99251.94;4930617;29;20119;-85
2021/08/05 11:05:24;;;;;;;4.80;2.90;;;;;;;21.65;68.12;99240.28;4923327;29;20035;-86
2021/08/05 11:07:54;;;;;;;3.35;2.45;;;;;;;21.35;69.11;99242.50;4916447;29;20479;-86
2021/08/05 11:10:25;;;;;;;6.07;2.90;;;;;;;21.93;68.41;99237.41;4917607;29;20118;-85
2021/08/05 11:12:56;;;;;;;12.05;3.25;;;;;;;22.08;67.00;99221.16;4919134;29;20426;-93
2021/08/05 11:15:31;;;;;;;4.95;2.45;;;;;;;22.11;66.27;99220.72;4933855;29;20115;-86
2021/08/05 11:18:09;;;;;;;4.82;2.40;;;;;;;22.81;64.11;99213.94;4932104;29;20032;-86
2021/08/05 11:20:38;;;;;;;5.03;1.80;;;;;;;22.36;64.15;99220.09;4933437;29;20112;-87
2021/08/05 11:23:05;;;;;;;3.60;1.88;;;;;;;22.92;62.21;99216.78;4929287;29;20487;-86
2021/08/05 11:25:52;;;;;;;4.43;2.05;;;;;;;22.89;61.11;99211.06;4915077;29;20109;-87
2021/08/05 11:28:49;;;;;;;4.75;1.88;;;;;;;22.93;61.00;99210.41;4922408;29;20033;-87